Tiempo atmosférico en la estación meteorológica de Priego de Cordoba, Córdoba (520 m.)



Fecha
DESCASC
Temp. máxima en grados centígrados (hora)
DESCASC
Temp. mínima en grados centígrados (hora)
DESCASC
Temp. media en grados centígrados
DESCASC
Racha de viento máxima en m/sg (hora)
DESCASC
Velocidad máxima media en intervalos de 10 minutos(hora)
DESCASC
Precipitaciones diarias en mm
DESCASC
Precipitaciones de 00:00 a 06:00 en mm
DESCASC
Precipitaciones de 06:00 a 12:00 en mm
DESCASC
Precipitaciones de 12:00 a 18:00 en mm
DESCASC
Precipitaciones de 18:00 a 24:00 en mm
DESCASC
05-04-2020 21 (15:20) 6.3 (07:30) 13.7 11.11 (17:40) 7.78 (18:00) 0 0 0 0 0
04-04-2020 18.7 (15:50) 8.6 (07:40) 13.7 15.56 (17:10) 10.83 (17:10) 0.2 0 0 0.2 0
03-04-2020 18.6 (16:30) 4.5 (08:20) 11.6 7.5 (14:30) 5 (23:59) 0 0 0 0 0
02-04-2020 11.5 (13:40) 5.6 (00:00) 8.5 10.28 (08:30) 6.39 (08:30) 7.6 0.8 6.8 0 0
01-04-2020 14 (17:30) 7.2 (00:00) 10.6 12.22 (19:20) 7.78 (19:20) 6 5 0.6 0.2 0.2
31-03-2020 15.8 (16:00) 8.7 (00:00) 12.3 14.72 (17:20) 10.83 (17:30) 6.4 4 1.6 0 0.8
30-03-2020 16.5 (16:20) 9.3 (00:00) 12.9 14.17 (18:20) 8.89 (18:20) 3.2 0 0 0 3.2
29-03-2020 17.2 (13:50) 4.6 (00:00) 10.9 6.67 (14:40) 3.89 (01:10) 0 0 0 0 0
28-03-2020 16.4 (17:20) 4.3 (00:00) 10.3 7.5 (20:10) 5 (20:10) 0 0 0 0 0
27-03-2020 16 (14:30) 7.5 (00:00) 11.8 14.72 (14:20) 10.28 (13:30) 0 0 0 0 0
26-03-2020 17.8 (16:40) 9.7 (00:00) 13.7 11.94 (13:10) 7.78 (16:00) 0 0 0 0 0
25-03-2020 14.3 (15:20) 8.3 (00:00) 11.3 10.56 (13:10) 8.33 (14:10) 0 0 0 0 0
24-03-2020 17.2 (15:20) 6.3 (00:00) 11.8 13.61 (12:20) 7.5 (11:40) 0 0 0 0 0
23-03-2020 14.6 (16:00) 4.1 (00:00) 9.4 14.17 (17:20) 7.5 (17:20) 2.8 0 0 1.8 1
22-03-2020 13 (17:00) 5.4 (03:30) 9.2 6.39 (17:10) 4.17 (19:20) 0.6 0 0 0.2 0.4
21-03-2020 14 (14:40) 6.2 (00:00) 10.1 16.39 (20:40) 9.72 (04:30) 10.8 6.8 0.4 1.4 2.2
20-03-2020 17.9 (13:50) 6.4 (00:00) 12.1 9.17 (21:40) 6.94 (22:00) 0 0 0 0 0
19-03-2020 20 (16:20) 7.1 (00:00) 13.5 8.61 (01:00) 4.72 (00:50) 0 0 0 0 0
18-03-2020 23 (16:00) 12.9 (00:00) 17.9 16.39 (01:40) 8.61 (01:20) 0 0 0 0 0
17-03-2020 16.5 (14:00) 3.8 (00:00) 10.1 14.17 (23:50) 8.89 (23:50) 0 0 0 0 0
16-03-2020 13.6 (00:40) 5.2 (00:00) 9.4 10.56 (13:10) 6.67 (02:00) 1 0.2 0.8 0 0
15-03-2020 19.6 (16:50) 8.6 (00:00) 14.1 8.33 (18:50) 5.83 (14:20) 0 0 0 0 0
14-03-2020 22 (17:20) 7.5 (00:00) 14.8 8.06 (12:50) 5.28 (11:40) 0 0 0 0 0
13-03-2020 22.8 (15:50) 8.4 (08:20) 15.6 7.5 (17:50) 5 (12:40) 0 0 0 0 0
12-03-2020 27.4 (15:20) 9.9 (00:00) 18.6 7.5 (16:00) 5.28 (17:10) 0 0 0 0 0
11-03-2020 28.9 (15:20) 7.6 (00:00) 18.2 7.5 (13:10) 5 (13:50) 0 0 0 0 0
10-03-2020 23.8 (17:00) 5.1 (00:00) 14.4 7.78 (15:40) 5.28 (14:30) 0 0 0 0 0
09-03-2020 19.6 (15:50) 4.8 (00:00) 12.2 8.89 (16:10) 5.83 (16:20) 0 0 0 0 0

Gráficas

Temp. máximas Temp. mínimas Temp. medias Precipitaciones Rachas de viento máximas Velocidades máximas media en intervalos de 10 minutos

Datos horarios

Fecha y hora oficial Temperatura (ºC) Velocidad del viento (km/h) Dirección del viento Racha (km/h) Dirección de racha Precipitación (mm) Presión (hPa) Tendencia (hPa) Humedad (%)
2020-04-07 23:00:00 15.3 11 Sudoeste 17 Sur 0 -- -- 77
2020-04-07 22:00:00 16.9 12 Sudoeste 18 Sudoeste 0 -- -- 70
2020-04-07 21:00:00 18.8 4 Sur 14 Sudoeste 0 -- -- 62
2020-04-07 20:00:00 21.2 6 Sudoeste 18 Sur 0 -- -- 54
2020-04-07 19:00:00 22.1 7 Noroeste 18 Nordeste 0 -- -- 53
2020-04-07 18:00:00 21.3 12 Norte 21 Norte 0 -- -- 56
2020-04-07 17:00:00 22.8 10 Norte 22 Sudoeste 0 -- -- 52
2020-04-07 16:00:00 22.4 8 Este 23 Sudoeste 0 -- -- 52
2020-04-07 15:00:00 21.8 9 Norte 19 Nordeste 0 -- -- 58
2020-04-07 14:00:00 20.6 3 Este 18 Sur 0 -- -- 61
2020-04-07 13:00:00 19.5 10 Sur 18 Sudoeste 0 -- -- 62
2020-04-07 12:00:00 18 4 Nordeste 9 Norte 0 -- -- 73
2020-04-07 11:00:00 15 5 Norte 8 Nordeste 0 -- -- 85
2020-04-07 10:00:00 12.7 0 Calma 7 Sudoeste 0 -- -- 98
2020-04-07 09:00:00 11 4 Sudoeste 6 Sudoeste 0 -- -- 96
2020-04-07 08:00:00 10.8 0 Calma 8 Sudoeste 0 -- -- 97
2020-04-07 07:00:00 10.8 7 Sudoeste 9 Sudoeste 0 -- -- 97
2020-04-07 06:00:00 10.6 9 Sudoeste 12 Sudoeste 0 -- -- 97
2020-04-07 05:00:00 10.8 5 Sudoeste 10 Sudoeste 0 -- -- 96
2020-04-07 04:00:00 11.2 9 Sudoeste 12 Oeste 0 -- -- 96
2020-04-07 03:00:00 12 5 Sudoeste 12 Oeste 0 -- -- 95
2020-04-07 02:00:00 12.4 5 Sur 9 Oeste 0 -- -- 94
2020-04-07 01:00:00 12.3 4 Sur 9 Sudoeste 0 -- -- 94
2020-04-07 00:00:00 13.1 5 Sudoeste 9 Nordeste 0 -- -- 91
2020-04-06 23:00:00 14.6 5 Nordeste 13 Nordeste 0 -- -- 88
2020-04-06 22:00:00 14.8 10 Nordeste 14 Nordeste 0 -- -- 87
2020-04-06 21:00:00 15.6 11 Nordeste 18 Nordeste 0 -- -- 82
2020-04-06 20:00:00 17.3 11 Nordeste 15 Norte 0 -- -- 74
2020-04-06 19:00:00 18.1 9 Nordeste 18 Nordeste 0 -- -- 70
2020-04-06 18:00:00 18.5 9 Este 15 Este 0 -- -- 68
2020-04-06 17:00:00 18.5 12 Oeste 20 Sudoeste 0 -- -- 62
2020-04-06 16:00:00 19.6 11 Sudoeste 19 Sudoeste 0 -- -- 58
2020-04-06 15:00:00 19.1 13 Sudoeste 21 Sudoeste 0 -- -- 58
2020-04-06 14:00:00 18.8 5 Norte 13 Nordeste 0 -- -- 60
2020-04-06 13:00:00 18.5 3 Oeste 15 Sudoeste 0 -- -- 58
2020-04-06 12:00:00 17.3 8 Sudoeste 14 Sur 0 -- -- 60
2020-04-06 11:00:00 15.1 3 Sur 9 Sudoeste 0 -- -- 71
2020-04-06 10:00:00 11.4 9 Sudoeste 14 Sudoeste 0 -- -- 84
2020-04-06 09:00:00 9.7 11 Sudoeste 15 Sudoeste 0 -- -- 89
2020-04-06 08:00:00 8.8 13 Sudoeste 17 Sudoeste 0 -- -- 90
2020-04-06 07:00:00 7.8 16 Sudoeste 18 Sudoeste 0 -- -- 94
2020-04-06 06:00:00 8.2 8 Sudoeste 12 Sudoeste 0 -- -- 91
2020-04-06 05:00:00 9.4 4 Sudoeste 15 Sudoeste 0 -- -- 88
2020-04-06 04:00:00 10.8 6 Sudoeste 8 Sudoeste 0 -- -- 81
2020-04-06 03:00:00 10.7 4 Sudoeste 6 Noroeste 0 -- -- 83
2020-04-06 02:00:00 10.8 4 Sudoeste 11 Sur 0 -- -- 82
2020-04-06 01:00:00 11.1 9 Sudoeste 12 Sudoeste 0 -- -- 84
2020-04-06 00:00:00 13.3 6 Sudoeste 11 Sur 0 -- -- 73
2020-04-05 23:00:00 14 5 Sur 14 Sur 0 -- -- 70
2020-04-05 22:00:00 15.1 9 Sur 23 Oeste 0 -- -- 66
2020-04-05 21:00:00 16.4 13 Sudoeste 28 Sudoeste 0 -- -- 62
2020-04-05 20:00:00 18.4 23 Sudoeste 32 Sudoeste 0 -- -- 55
2020-04-05 19:00:00 19.7 24 Sudoeste 31 Sudoeste 0 -- -- 51
2020-04-05 18:00:00 20.4 28 Sudoeste 40 Oeste 0 -- -- 49
2020-04-05 17:00:00 20.7 23 Sudoeste 33 Sudoeste 0 -- -- 48
2020-04-05 16:00:00 20.6 22 Sudoeste 34 Sudoeste 0 -- -- 51
2020-04-05 15:00:00 20.3 14 Sudoeste 27 Sudoeste 0 -- -- 49
2020-04-05 14:00:00 20.3 16 Sudoeste 24 Sudoeste 0 -- -- 49
2020-04-05 13:00:00 19.1 5 Oeste 23 Sudeste 0 -- -- 52
2020-04-05 12:00:00 17.9 13 Sur 22 Sur 0 -- -- 52
2020-04-05 11:00:00 15.3 4 Oeste 9 Oeste 0 -- -- 59
2020-04-05 10:00:00 10 7 Sudoeste 12 Sudoeste 0 -- -- 79
2020-04-05 09:00:00 6.8 4 Sudoeste 11 Sudoeste 0 -- -- 88
2020-04-05 08:00:00 6.4 7 Sudoeste 14 Sudoeste 0 -- -- 87
2020-04-05 07:00:00 7.1 5 Sudoeste 13 Sudoeste 0 -- -- 85
2020-04-05 06:00:00 7.6 11 Sudoeste 15 Oeste 0 -- -- 84
2020-04-05 05:00:00 8.1 3 Sudoeste 19 Sudeste 0 -- -- 81
2020-04-05 04:00:00 12.5 13 Sudeste 19 Sur 0 -- -- 58
2020-04-05 03:00:00 12.1 12 Sur 18 Sur 0 -- -- 64
2020-04-05 02:00:00 8.5 6 Sudoeste 14 Oeste 0 -- -- 85
2020-04-05 01:00:00 8.9 3 Sur 13 Sudoeste 0 -- -- 84
2020-04-05 00:00:00 9.9 8 Sudoeste 23 Sudoeste 0 -- -- 83
2020-04-04 23:00:00 10.3 12 Sudoeste 18 Sudoeste 0 -- -- 83
2020-04-04 22:00:00 12.1 10 Sudoeste 27 Sudeste 0 -- -- 74
2020-04-04 21:00:00 13.6 10 Sudoeste 18 Sur 0 -- -- 63
2020-04-04 20:00:00 13.7 12 Sudoeste 20 Sur 0 -- -- 65
2020-04-04 19:00:00 12.9 3 Sur 20 Oeste 0 -- -- 67
2020-04-04 18:00:00 12.2 13 Oeste 56 Sur 0.2 -- -- 69
2020-04-04 17:00:00 16.7 26 Sudoeste 43 Sur 0 -- -- 42
2020-04-04 16:00:00 18.4 27 Sur 40 Sur 0 -- -- 35
2020-04-04 15:00:00 18.2 15 Sur 33 Sur 0 -- -- 39
2020-04-04 14:00:00 18 18 Sudeste 33 Sur 0 -- -- 37
2020-04-04 13:00:00 17.5 23 Sur 42 Sur 0 -- -- 40
2020-04-04 12:00:00 17.2 25 Sur 36 Sur 0 -- -- 39
2020-04-04 11:00:00 15.9 4 Sudeste 10 Sudeste 0 -- -- 49
2020-04-04 10:00:00 13.7 2 Nordeste 7 Noroeste 0 -- -- 57
2020-04-04 09:00:00 10.4 6 Norte 15 Norte 0 -- -- 66
2020-04-04 08:00:00 9 11 Norte 15 Norte 0 -- -- 71
2020-04-04 07:00:00 9 8 Norte 11 Nordeste 0 -- -- 74
2020-04-04 06:00:00 9.3 4 Este 12 Norte 0 -- -- 76
2020-04-04 05:00:00 11 9 Sudeste 17 Sudeste 0 -- -- 70
2020-04-04 04:00:00 8.8 8 Norte 13 Sudoeste 0 -- -- 81
2020-04-04 03:00:00 9.7 7 Norte 27 Sudeste 0 -- -- 77
2020-04-04 02:00:00 11.9 14 Sudeste 26 Este 0 -- -- 62
2020-04-04 01:00:00 11.4 9 Sur 25 Sur 0 -- -- 69
2020-04-04 00:00:00 11.9 18 Sur 24 Sur 0 -- -- 67
2020-04-03 23:00:00 12 10 Sudoeste 15 Sudoeste 0 -- -- 72
2020-04-03 22:00:00 13.4 11 Sudoeste 19 Sudoeste 0 -- -- 67
2020-04-03 21:00:00 14.9 13 Sudoeste 19 Sudoeste 0 -- -- 63
2020-04-03 20:00:00 17.1 6 Noroeste 16 Norte 0 -- -- 59
2020-04-03 19:00:00 17.2 10 Norte 19 Norte 0 -- -- 60
2020-04-03 18:00:00 16.7 9 Norte 18 Nordeste 0 -- -- 61
2020-04-03 17:00:00 17.6 3 Norte 18 Noroeste 0 -- -- 56
2020-04-03 16:00:00 17.7 10 Nordeste 21 Norte 0 -- -- 58
2020-04-03 15:00:00 16.9 15 Nordeste 27 Nordeste 0 -- -- 62
2020-04-03 14:00:00 16.8 12 Nordeste 23 Nordeste 0 -- -- 62
2020-04-03 13:00:00 16.1 9 Nordeste 19 Norte 0 -- -- 60
2020-04-03 12:00:00 14.4 8 Norte 16 Nordeste 0 -- -- 67
2020-04-03 11:00:00 11.7 0 Calma 6 Sur 0 -- -- 78
2020-04-03 10:00:00 8 3 Sur 13 Sudoeste 0 -- -- 93
2020-04-03 09:00:00 4.9 9 Sudoeste 11 Sudoeste 0 -- -- 96
2020-04-03 08:00:00 5 4 Sudoeste 9 Sudoeste 0 -- -- 95
2020-04-03 07:00:00 5 5 Sudoeste 8 Sudoeste 0 -- -- 94
2020-04-03 06:00:00 6.3 7 Sudoeste 9 Oeste 0 -- -- 92
2020-04-03 05:00:00 7.3 0 Calma 9 Sudoeste 0 -- -- 90
2020-04-03 04:00:00 6.4 6 Sudoeste 10 Oeste 0 -- -- 94
2020-04-03 03:00:00 5.4 8 Sudoeste 10 Sudoeste 0 -- -- 94
2020-04-03 02:00:00 5.3 6 Sudoeste 9 Sudoeste 0 -- -- 94
2020-04-03 01:00:00 5.5 6 Sudoeste 9 Sudoeste 0 -- -- 93
2020-04-03 00:00:00 6.4 6 Sudoeste 7 Sudoeste 0 -- -- 89
2020-04-02 23:00:00 7.1 4 Sudoeste 11 Oeste 0 -- -- 87
2020-04-02 22:00:00 8.7 4 Nordeste 6 Este 0 -- -- 78
2020-04-02 21:00:00 9.6 2 Nordeste 17 Norte 0 -- -- 72
2020-04-02 20:00:00 10.8 6 Norte 26 Norte 0 -- -- 67
2020-04-02 19:00:00 10.7 9 Norte 27 Norte 0 -- -- 66
2020-04-02 18:00:00 11 14 Norte 27 Norte 0 -- -- 69
2020-04-02 17:00:00 11 12 Norte 28 Norte 0 -- -- 71
2020-04-02 16:00:00 9.9 17 Norte 27 Noroeste 0 -- -- 75
2020-04-02 15:00:00 9.2 14 Norte 31 Noroeste 0 -- -- 77
2020-04-02 14:00:00 10.8 10 Nordeste 18 Nordeste 0 -- -- 71
2020-04-02 13:00:00 10.3 12 Nordeste 18 Nordeste 0 -- -- 77
2020-04-02 12:00:00 9.3 5 Norte 11 Nordeste 0 -- -- 80
2020-04-02 11:00:00 6.8 3 Norte 13 Oeste 0.4 -- -- 89
2020-04-02 10:00:00 5.6 8 Sudeste 19 Sur 1 -- -- 89
2020-04-02 09:00:00 5.8 9 Sur 37 Sudoeste 1.4 -- -- 91
2020-04-02 08:00:00 7.3 6 Sudoeste 14 Sudoeste 2.8 -- -- 95
2020-04-02 07:00:00 7.3 0 Calma 5 Sur 1.2 -- -- 95
2020-04-02 06:00:00 7.2 2 Sur 6 Sudoeste 0.2 -- -- 94
2020-04-02 05:00:00 7 4 Sudoeste 6 Sudoeste 0.6 -- -- 93
2020-04-02 04:00:00 7.1 4 Noroeste 6 Noroeste 0 -- -- 91
2020-04-02 03:00:00 6.8 4 Nordeste 9 Norte 0 -- -- 91
2020-04-02 02:00:00 7.5 6 Sur 10 Sur 0 -- -- 87
2020-04-02 01:00:00 7.3 5 Sudoeste 12 Sur 0 -- -- 87
2020-04-02 00:00:00 7.2 9 Sur 12 Sur 0 -- -- 90
2020-04-01 23:00:00 7.4 0 Calma 16 Sur 0 -- -- 88
2020-04-01 22:00:00 7.9 14 Sur 37 Sudoeste 0.2 -- -- 84
2020-04-01 21:00:00 10 13 Sudoeste 25 Sudoeste 0 -- -- 77
2020-04-01 20:00:00 11.4 18 Oeste 44 Oeste 0 -- -- 70
2020-04-01 19:00:00 13.7 14 Oeste 31 Sudoeste 0 -- -- 58
2020-04-01 18:00:00 13.6 15 Oeste 29 Oeste 0 -- -- 57
2020-04-01 17:00:00 13.5 14 Oeste 29 Sudoeste 0 -- -- 59
2020-04-01 16:00:00 13.5 18 Oeste 30 Sudoeste 0 -- -- 58
2020-04-01 15:00:00 12.9 15 Sudoeste 29 Sudoeste 0 -- -- 64
2020-04-01 14:00:00 12.6 15 Sudoeste 26 Sudoeste 0 -- -- 66
2020-04-01 13:00:00 11.7 13 Sudoeste 30 Sudoeste 0.2 -- -- 78
2020-04-01 12:00:00 11.7 9 Sudoeste 20 Sudoeste 0 -- -- 82
2020-04-01 11:00:00 10.6 8 Sudoeste 16 Sudoeste 0.2 -- -- 87
2020-04-01 10:00:00 10.9 2 Sur 10 Sudoeste 0 -- -- 89
2020-04-01 09:00:00 9.2 5 Sur 6 Sur 0.2 -- -- 96
2020-04-01 08:00:00 9 0 Calma 8 Sudoeste 0 -- -- 94
2020-04-01 07:00:00 9 6 Sudoeste 10 Sudoeste 0.2 -- -- 94
2020-04-01 06:00:00 9.1 8 Oeste 14 Sur 0 -- -- 94
2020-04-01 05:00:00 9.1 7 Sur 10 Sudoeste 0 -- -- 95
2020-04-01 04:00:00 8.6 5 Sudoeste 12 Sudoeste 0 -- -- 92
2020-04-01 03:00:00 8.9 11 Sudoeste 25 Sur 4.8 -- -- 91
2020-04-01 02:00:00 10.9 5 Sur 12 Sudoeste 0 -- -- 90
2020-04-01 01:00:00 10.8 5 Sur 10 Sudoeste 0.2 -- -- 89
2020-04-01 00:00:00 11 4 Sur 6 Sur 0 -- -- 89
2020-03-31 23:00:00 11 6 Sudoeste 9 Sudoeste 0.2 -- -- 90
2020-03-31 22:00:00 10.2 7 Sur 32 Oeste 0.6 -- -- 85
2020-03-31 21:00:00 12.9 7 Sudoeste 32 Sudoeste 0 -- -- 75
2020-03-31 20:00:00 13.6 15 Sur 33 Sur 0 -- -- 73
2020-03-31 19:00:00 13.8 26 Sur 41 Sur 0 -- -- 75
2020-03-31 18:00:00 13.6 27 Sur 53 Sur 0 -- -- 73
2020-03-31 17:00:00 15 27 Sur 46 Sur 0 -- -- 66
2020-03-31 16:00:00 15.8 26 Sur 37 Sudoeste 0 -- -- 66
2020-03-31 15:00:00 13.3 24 Sudoeste 43 Sur 0 -- -- 77
2020-03-31 14:00:00 14 25 Sudeste 39 Sur 0 -- -- 79
2020-03-31 13:00:00 12.6 19 Sudeste 30 Sur 0 -- -- 80
2020-03-31 12:00:00 10.8 8 Sudoeste 13 Sudoeste 0.6 -- -- 92
2020-03-31 11:00:00 10.3 9 Oeste 13 Oeste 0.4 -- -- 89
2020-03-31 10:00:00 10.1 7 Sur 23 Sur 0.4 -- -- 89
2020-03-31 09:00:00 9.8 18 Sur 25 Sur 0.2 -- -- 85
2020-03-31 08:00:00 9.6 17 Sur 27 Sur 0 -- -- 85
2020-03-31 07:00:00 9.3 12 Sudoeste 21 Sudoeste 0 -- -- 83
2020-03-31 06:00:00 8.7 15 Sudoeste 36 Sudeste 0 -- -- 87
2020-03-31 05:00:00 8.8 22 Sudeste 37 Sudeste 1.6 -- -- 88
2020-03-31 04:00:00 9.2 11 Sur 21 Sur 1.6 -- -- 89
2020-03-31 03:00:00 9.6 2 Norte 6 Sur 0.2 -- -- 96
2020-03-31 02:00:00 9.5 2 Sur 6 Norte 0.4 -- -- 96
2020-03-31 01:00:00 9.4 3 Nordeste 6 Nordeste 0.2 -- -- 96
2020-03-31 00:00:00 9.4 4 Nordeste 12 Nordeste 0.2 -- -- 96
2020-03-30 23:00:00 9.6 12 Nordeste 18 Nordeste 0.2 -- -- 96
2020-03-30 22:00:00 10.2 6 Norte 11 Norte 0 -- -- 93
2020-03-30 21:00:00 10.7 6 Sur 19 Sudoeste 0.4 -- -- 92
2020-03-30 20:00:00 10.9 13 Sudoeste 22 Sudoeste 1.2 -- -- 91
2020-03-30 19:00:00 11.2 13 Sudoeste 51 Sudoeste 1.2 -- -- 88
2020-03-30 18:00:00 15.3 16 Sudoeste 25 Sudoeste 0 -- -- 58
2020-03-30 17:00:00 16 14 Sudoeste 22 Sudoeste 0 -- -- 58
2020-03-30 16:00:00 16 5 Sudeste 17 Sudoeste 0 -- -- 57
2020-03-30 15:00:00 15.4 12 Sudoeste 17 Sudoeste 0 -- -- 63
2020-03-30 14:00:00 16 13 Nordeste 20 Nordeste 0 -- -- 64
2020-03-30 13:00:00 15.3 9 Norte 20 Nordeste 0 -- -- 68
2020-03-30 12:00:00 14.7 7 Nordeste 13 Norte 0 -- -- 68
2020-03-30 11:00:00 13 6 Norte 13 Nordeste 0 -- -- 80
2020-03-30 10:00:00 11.1 2 Norte 7 Nordeste 0 -- -- 87
2020-03-30 09:00:00 9.4 4 Norte 8 Sudoeste 0 -- -- 91
2020-03-30 08:00:00 9.8 6 Sur 9 Sudoeste 0 -- -- 90
2020-03-30 07:00:00 10.1 6 Sur 8 Sur 0 -- -- 89
2020-03-30 06:00:00 10.9 3 Sur 5 Sudoeste 0 -- -- 86
2020-03-30 05:00:00 11.2 2 Sudeste 4 Sudoeste 0 -- -- 84
2020-03-30 04:00:00 11.4 5 Sudoeste 12 Sudoeste 0 -- -- 85
2020-03-30 03:00:00 11.3 6 Sudoeste 19 Sudoeste 0 -- -- 85
2020-03-30 02:00:00 11.9 17 Sudoeste 26 Sudoeste 0 -- -- 81
2020-03-30 01:00:00 11.5 16 Sudoeste 23 Sudoeste 0 -- -- 79
2020-03-30 00:00:00 11.4 7 Sudoeste 12 Sudoeste 0 -- -- 72
2020-03-29 23:00:00 11.4 9 Sudoeste 12 Sudoeste 0 -- -- 69
2020-03-29 22:00:00 12.8 9 Sudoeste 10 Sudoeste 0 -- -- 63
2020-03-29 21:00:00 14.9 6 Sur 13 Noroeste 0 -- -- 55
2020-03-29 20:00:00 15.7 8 Noroeste 12 Noroeste 0 -- -- 51
2020-03-29 19:00:00 16.5 3 Sur 9 Sur 0 -- -- 48
2020-03-29 18:00:00 16.8 7 Sur 13 Sur 0 -- -- 47
2020-03-29 17:00:00 16.4 3 Noroeste 13 Sudoeste 0 -- -- 50
2020-03-29 16:00:00 17.1 5 Norte 19 Noroeste 0 -- -- 48
2020-03-29 15:00:00 17.1 13 Norte 24 Norte 0 -- -- 47
2020-03-29 14:00:00 16.6 9 Norte 23 Nordeste 0 -- -- 55
2020-03-29 13:00:00 16.7 12 Nordeste 21 Nordeste 0 -- -- 57
2020-03-29 12:00:00 15.2 6 Nordeste 14 Norte 0 -- -- 60
2020-03-29 11:00:00 12.2 2 Nordeste 7 Norte 0 -- -- 73
2020-03-29 10:00:00 7.3 2 Sur 7 Sur 0 -- -- 91
2020-03-29 09:00:00 5.3 5 Sudoeste 13 Sudoeste 0 -- -- 95
2020-03-29 08:00:00 4.9 9 Sudoeste 10 Sudoeste 0 -- -- 95
2020-03-29 07:00:00 5.2 10 Sudoeste 12 Sudoeste 0 -- -- 94
2020-03-29 06:00:00 6.5 10 Sudoeste 12 Sudoeste 0 -- -- 92
2020-03-29 05:00:00 7.5 6 Oeste 9 Sudoeste 0 -- -- 90
2020-03-29 03:00:00 7.6 8 Sudoeste 18 Sur 0 -- -- 88
2020-03-29 01:00:00 8.8 14 Sur 17 Sur 0 -- -- 82
2020-03-29 00:00:00 9 14 Sur 17 Sudoeste 0 -- -- 82
2020-03-28 23:00:00 9.4 12 Sudoeste 21 Sudoeste 0 -- -- 81
2020-03-28 22:00:00 10.2 15 Sur 19 Sudoeste 0 -- -- 78
2020-03-28 21:00:00 11.4 14 Sur 27 Sudoeste 0 -- -- 74
2020-03-28 20:00:00 13.1 14 Sudoeste 26 Sudoeste 0 -- -- 69
2020-03-28 19:00:00 15.3 3 Norte 12 Nordeste 0 -- -- 51
2020-03-28 18:00:00 15.1 4 Norte 18 Norte 0 -- -- 52
2020-03-28 17:00:00 15.6 9 Noroeste 20 Norte 0 -- -- 51
2020-03-28 16:00:00 15.7 7 Norte 16 Sudoeste 0 -- -- 52
2020-03-28 15:00:00 15.8 8 Sudoeste 14 Sudoeste 0 -- -- 51
2020-03-28 14:00:00 15.1 5 Norte 19 Norte 0 -- -- 53
2020-03-28 13:00:00 15.7 8 Nordeste 19 Norte 0 -- -- 53
2020-03-28 12:00:00 14.2 4 Sudeste 12 Sudoeste 0 -- -- 56
2020-03-28 11:00:00 14.5 5 Este 11 Este 0 -- -- 59
2020-03-28 10:00:00 11.1 4 Sur 8 Sur 0 -- -- 76
2020-03-28 09:00:00 6.9 7 Sudoeste 9 Sudoeste 0 -- -- 91
2020-03-28 08:00:00 4.6 8 Sudoeste 9 Sudoeste 0 -- -- 94
2020-03-28 07:00:00 4.6 4 Sudoeste 7 Sur 0 -- -- 95
2020-03-28 06:00:00 5.4 3 Sudoeste 4 Sudoeste 0 -- -- 92
2020-03-28 05:00:00 6 5 Nordeste 12 Nordeste 0 -- -- 88
2020-03-28 04:00:00 6.7 4 Nordeste 11 Sur 0 -- -- 89
2020-03-28 03:00:00 8.2 3 Sur 6 Oeste 0 -- -- 82
2020-03-28 02:00:00 8.6 4 Norte 14 Sudoeste 0 -- -- 79
2020-03-28 01:00:00 9.4 10 Sudoeste 15 Sudoeste 0 -- -- 76
2020-03-28 00:00:00 10 8 Sudoeste 21 Sudoeste 0 -- -- 77
2020-03-27 23:00:00 9.8 10 Sur 14 Sudoeste 0 -- -- 80
2020-03-27 22:00:00 9.8 8 Sudoeste 11 Sudoeste 0 -- -- 72
2020-03-27 21:00:00 11.1 5 Sudoeste 13 Sur 0 -- -- 63
2020-03-27 20:00:00 12.2 10 Sudoeste 22 Oeste 0 -- -- 58
2020-03-27 19:00:00 13.7 14 Oeste 32 Oeste 0 -- -- 54
2020-03-27 18:00:00 14.7 15 Oeste 37 Oeste 0 -- -- 54
2020-03-27 17:00:00 14.8 19 Sudoeste 45 Oeste 0 -- -- 54
2020-03-27 16:00:00 14.9 25 Oeste 43 Sudoeste 0 -- -- 56
2020-03-27 15:00:00 15.4 32 Sudoeste 53 Sudoeste 0 -- -- 49
2020-03-27 14:00:00 15.4 33 Sudoeste 49 Sudoeste 0 -- -- 52
2020-03-27 13:00:00 14.9 27 Sudoeste 50 Sudoeste 0 -- -- 52
2020-03-27 12:00:00 14.2 32 Sudoeste 44 Sudoeste 0 -- -- 55
2020-03-27 11:00:00 13 25 Sudoeste 36 Sudoeste 0 -- -- 61
2020-03-27 10:00:00 12.5 12 Sudoeste 19 Sudoeste 0 -- -- 70
2020-03-27 09:00:00 11.6 3 Sur 6 Este 0 -- -- 73
2020-03-27 08:00:00 8.9 3 Nordeste 11 Sur 0 -- -- 87
2020-03-27 07:00:00 8.5 8 Sur 18 Sur 0 -- -- 86
2020-03-27 06:00:00 7.8 14 Sudoeste 19 Sur 0 -- -- 88
2020-03-27 05:00:00 8 10 Sudoeste 15 Sur 0 -- -- 89
2020-03-27 04:00:00 9.5 6 Sur 23 Sur 0 -- -- 83
2020-03-27 03:00:00 9.9 15 Sudoeste 20 Sudoeste 0 -- -- 82
2020-03-27 02:00:00 10.5 15 Sur 20 Sudoeste 0 -- -- 81
2020-03-27 01:00:00 11.4 12 Sudoeste 22 Sudoeste 0 -- -- 77
2020-03-27 00:00:00 11.8 15 Sudoeste 33 Sudoeste 0 -- -- 77
2020-03-26 23:00:00 12.2 20 Sudoeste 27 Sur 0 -- -- 76
2020-03-26 22:00:00 13.4 18 Sudoeste 26 Sudoeste 0 -- -- 71
2020-03-26 21:00:00 14.2 17 Sudoeste 29 Sudoeste 0 -- -- 66
2020-03-26 20:00:00 15.5 12 Sudoeste 33 Oeste 0 -- -- 56
2020-03-26 19:00:00 16.2 15 Sudoeste 30 Oeste 0 -- -- 59
2020-03-26 18:00:00 17.3 19 Oeste 36 Oeste 0 -- -- 54
2020-03-26 17:00:00 17.7 24 Sudoeste 38 Oeste 0 -- -- 53
2020-03-26 16:00:00 17.5 28 Sudoeste 40 Sudoeste 0 -- -- 53
2020-03-26 15:00:00 16.8 27 Sudoeste 38 Sudoeste 0 -- -- 53
2020-03-26 14:00:00 16 28 Sudoeste 43 Oeste 0 -- -- 57
2020-03-26 13:00:00 15.1 24 Sudoeste 37 Sudoeste 0 -- -- 65
2020-03-26 12:00:00 13.5 27 Sudoeste 39 Sudoeste 0 -- -- 75
2020-03-26 11:00:00 11.9 22 Sudoeste 31 Sudoeste 0 -- -- 85
2020-03-26 10:00:00 10.7 15 Sudoeste 26 Sudoeste 0 -- -- 89
2020-03-26 09:00:00 10.3 15 Sudoeste 26 Sudoeste 0 -- -- 92
2020-03-26 08:00:00 10.1 15 Sudoeste 23 Sur 0 -- -- 94
2020-03-26 07:00:00 9.7 10 Sur 21 Sudoeste 0 -- -- 96
2020-03-26 06:00:00 9.9 14 Sudoeste 30 Sudoeste 0 -- -- 95
2020-03-26 05:00:00 10.2 20 Sudoeste 31 Sudoeste 0 -- -- 90
2020-03-26 04:00:00 10 12 Sur 28 Sudoeste 0 -- -- 93
2020-03-26 03:00:00 10.2 19 Sudoeste 30 Sudoeste 0 -- -- 90
2020-03-26 02:00:00 10.1 21 Sudoeste 30 Sudoeste 0 -- -- 88
2020-03-26 01:00:00 10.1 23 Sudoeste 31 Sudoeste 0 -- -- 86
2020-03-26 00:00:00 10.3 19 Sudoeste 31 Sudoeste 0 -- -- 84
2020-03-25 23:00:00 10 18 Sudoeste 29 Sur 0 -- -- 85
2020-03-25 22:00:00 10.2 17 Sudoeste 21 Sudoeste 0 -- -- 85
2020-03-25 21:00:00 10.7 16 Sur 24 Sur 0 -- -- 84
2020-03-25 20:00:00 11.5 17 Sudoeste 27 Sudoeste 0 -- -- 80
2020-03-25 19:00:00 13.2 17 Sudoeste 33 Sudoeste 0 -- -- 72
2020-03-25 18:00:00 13.9 23 Sudoeste 32 Sudoeste 0 -- -- 69
2020-03-25 17:00:00 13.6 21 Sudoeste 36 Sudoeste 0 -- -- 68
2020-03-25 16:00:00 13.9 23 Sudoeste 33 Sudoeste 0 -- -- 67
2020-03-25 15:00:00 13.8 23 Sudoeste 36 Sudoeste 0 -- -- 69
2020-03-25 14:00:00 12.9 25 Sudoeste 38 Sudoeste 0 -- -- 74
2020-03-25 13:00:00 12.4 26 Sudoeste 37 Sudoeste 0 -- -- 77
2020-03-25 12:00:00 13 12 Sudoeste 18 Sudoeste 0 -- -- 73
2020-03-25 11:00:00 13.2 9 Sudoeste 14 Sudoeste 0 -- -- 65
2020-03-25 10:00:00 11.6 7 Sudoeste 12 Sudoeste 0 -- -- 72
2020-03-25 09:00:00 9.2 3 Sudoeste 10 Sudoeste 0 -- -- 86
2020-03-25 08:00:00 8.4 6 Sudoeste 12 Sudoeste 0 -- -- 87
2020-03-25 07:00:00 8.4 5 Sudoeste 10 Sudoeste 0 -- -- 84
2020-03-25 06:00:00 8.6 4 Sudoeste 9 Nordeste 0 -- -- 82
2020-03-25 05:00:00 9.6 6 Nordeste 11 Norte 0 -- -- 77
2020-03-25 04:00:00 10.6 3 Norte 12 Este 0 -- -- 67
2020-03-25 03:00:00 11.3 8 Este 26 Este 0 -- -- 64
2020-03-25 02:00:00 11.3 5 Sudeste 17 Sur 0 -- -- 65
2020-03-25 01:00:00 11.6 4 Nordeste 21 Este 0 -- -- 65
2020-03-25 00:00:00 12.5 4 Sudeste 27 Nordeste 0 -- -- 61
2020-03-24 23:00:00 12.8 10 Nordeste 35 Este 0 -- -- 58
2020-03-24 22:00:00 12.7 10 Este 39 Nordeste 0 -- -- 60
2020-03-24 21:00:00 12.5 11 Nordeste 37 Este 0 -- -- 60
2020-03-24 20:00:00 12.9 11 Norte 32 Este 0 -- -- 61
2020-03-24 19:00:00 14.6 17 Este 37 Este 0 -- -- 56
2020-03-24 18:00:00 15.9 15 Este 36 Este 0 -- -- 54
2020-03-24 17:00:00 16 21 Este 43 Este 0 -- -- 52
2020-03-24 16:00:00 16.1 21 Este 46 Este 0 -- -- 52
2020-03-24 15:00:00 16.9 24 Este 41 Este 0 -- -- 52
2020-03-24 14:00:00 16.3 17 Este 48 Sudeste 0 -- -- 54
2020-03-24 13:00:00 16.8 13 Nordeste 49 Este 0 -- -- 57
2020-03-24 12:00:00 14.8 22 Este 48 Nordeste 0 -- -- 58
2020-03-24 11:00:00 14 7 Nordeste 16 Norte 0 -- -- 71
2020-03-24 10:00:00 10.2 5 Norte 11 Oeste 0 -- -- 89
2020-03-24 09:00:00 8.4 7 Oeste 16 Nordeste 0 -- -- 91
2020-03-24 08:00:00 6.6 4 Noroeste 9 Sudoeste 0 -- -- 96
2020-03-24 07:00:00 6.6 5 Sudoeste 9 Sudoeste 0 -- -- 96
2020-03-24 06:00:00 7.3 0 Calma 11 Norte 0 -- -- 96
2020-03-24 05:00:00 7.7 6 Norte 12 Norte 0 -- -- 96
2020-03-24 04:00:00 7.9 4 Nordeste 12 Norte 0 -- -- 96
2020-03-24 03:00:00 7.9 7 Sudoeste 13 Sudoeste 0 -- -- 96
2020-03-24 02:00:00 7.9 4 Sur 9 Sudoeste 0 -- -- 96
2020-03-24 01:00:00 8.2 3 Sudeste 9 Oeste 0 -- -- 96
2020-03-24 00:00:00 8.2 4 Nordeste 10 Nordeste 0 -- -- 94
2020-03-23 23:00:00 8.4 6 Nordeste 9 Norte 0.2 -- -- 94
2020-03-23 22:00:00 8.6 4 Norte 10 Este 0.4 -- -- 94
2020-03-23 21:00:00 8.6 7 Nordeste 14 Norte 0.2 -- -- 92
2020-03-23 20:00:00 9 0 Calma 15 Sur 0 -- -- 88
2020-03-23 19:00:00 9.2 11 Sur 20 Sur 0.2 -- -- 86
2020-03-23 18:00:00 9.5 15 Sudoeste 51 Sudeste 1.8 -- -- 86
2020-03-23 17:00:00 13.9 15 Sudoeste 27 Sudoeste 0 -- -- 59
2020-03-23 16:00:00 14.6 5 Sudoeste 13 Sudoeste 0 -- -- 53
2020-03-23 15:00:00 14.2 6 Sudoeste 12 Sur 0 -- -- 53
2020-03-23 14:00:00 14 9 Sur 17 Sur 0 -- -- 55
2020-03-23 13:00:00 14.1 5 Este 17 Nordeste 0 -- -- 55
2020-03-23 12:00:00 14 6 Nordeste 16 Nordeste 0 -- -- 59
2020-03-23 11:00:00 11.7 5 Norte 8 Noroeste 0 -- -- 71
2020-03-23 10:00:00 9.8 2 Norte 6 Sudoeste 0 -- -- 77
2020-03-23 09:00:00 6.3 4 Sudoeste 8 Sudoeste 0 -- -- 95
2020-03-23 08:00:00 4.5 8 Sudoeste 10 Sudoeste 0 -- -- 97
2020-03-23 07:00:00 4.3 4 Sudoeste 6 Sudoeste 0 -- -- 96
2020-03-23 06:00:00 4.6 0 Calma 6 Sur 0 -- -- 96
2020-03-23 05:00:00 4.6 5 Sudoeste 9 Oeste 0 -- -- 96
2020-03-23 04:00:00 4.6 7 Sudoeste 9 Sudoeste 0 -- -- 96
2020-03-23 03:00:00 4.7 4 Sur 11 Oeste 0 -- -- 96
2020-03-23 02:00:00 5.2 6 Sudoeste 12 Sudoeste 0 -- -- 95
2020-03-23 01:00:00 5.7 5 Sudoeste 8 Sudoeste 0 -- -- 94
2020-03-23 00:00:00 6.1 4 Sudoeste 10 Oeste 0 -- -- 93
2020-03-22 23:00:00 6.6 9 Sudoeste 12 Sudoeste 0 -- -- 91
2020-03-22 22:00:00 7.8 6 Sudoeste 11 Nordeste 0 -- -- 87
2020-03-22 21:00:00 8.4 9 Nordeste 18 Nordeste 0 -- -- 85
2020-03-22 20:00:00 9.4 13 Nordeste 22 Sur 0 -- -- 83
2020-03-22 19:00:00 9.8 14 Sudeste 20 Sudeste 0.4 -- -- 82
2020-03-22 18:00:00 11.6 13 Sudoeste 23 Sudoeste 0 -- -- 68
2020-03-22 17:00:00 13 14 Sudoeste 22 Sudoeste 0 -- -- 61
2020-03-22 16:00:00 12.3 8 Oeste 22 Sudoeste 0 -- -- 65
2020-03-22 15:00:00 10.5 13 Sudoeste 19 Sudoeste 0 -- -- 79
2020-03-22 14:00:00 11.9 4 Este 11 Nordeste 0.2 -- -- 78
2020-03-22 13:00:00 10.3 7 Norte 15 Norte 0 -- -- 77
2020-03-22 12:00:00 10.5 4 Norte 8 Sudoeste 0 -- -- 73
2020-03-22 11:00:00 9.3 5 Sudoeste 9 Sudoeste 0 -- -- 76
2020-03-22 10:00:00 8.3 3 Oeste 6 Oeste 0 -- -- 83
2020-03-22 09:00:00 6.8 0 Calma 7 Nordeste 0 -- -- 94
2020-03-22 08:00:00 6 4 Nordeste 6 Norte 0 -- -- 92
2020-03-22 07:00:00 6.2 2 Oeste 8 Oeste 0 -- -- 88
2020-03-22 06:00:00 6.7 8 Oeste 20 Sur 0 -- -- 87
2020-03-22 05:00:00 5.8 8 Sudoeste 13 Sur 0 -- -- 96
2020-03-22 04:00:00 5.4 8 Sudoeste 11 Sudoeste 0 -- -- 97
2020-03-22 03:00:00 5.5 3 Sudoeste 5 Oeste 0 -- -- 95
2020-03-22 02:00:00 5.6 4 Sudoeste 6 Oeste 0 -- -- 94
2020-03-22 01:00:00 5.8 2 Sudeste 14 Oeste 0 -- -- 94
2020-03-22 00:00:00 6.2 5 Sudoeste 10 Sur 0 -- -- 92
2020-03-21 23:00:00 6.4 2 Sudeste 6 Sur 0 -- -- 93
2020-03-21 22:00:00 6.3 4 Sudoeste 17 Sudoeste 1 -- -- 92
2020-03-21 21:00:00 6.3 20 Sudoeste 59 Sudoeste 0.8 -- -- 89
2020-03-21 20:00:00 9.1 13 Sur 28 Sur 0 -- -- 83
2020-03-21 19:00:00 9.1 18 Sur 32 Sur 0.4 -- -- 83
2020-03-21 18:00:00 9.2 10 Sur 24 Sudoeste 0.8 -- -- 90
2020-03-21 17:00:00 9.4 20 Sudoeste 49 Sudoeste 0.6 -- -- 87
2020-03-21 16:00:00 12.3 21 Sudoeste 32 Sudoeste 0 -- -- 60
2020-03-21 15:00:00 13.8 12 Sudoeste 27 Sur 0 -- -- 54
2020-03-21 14:00:00 13.6 19 Sudoeste 28 Sudoeste 0 -- -- 56
2020-03-21 13:00:00 12.7 17 Sudoeste 28 Sudoeste 0 -- -- 65
2020-03-21 12:00:00 10.6 18 Sudoeste 29 Sudoeste 0 -- -- 71
2020-03-21 11:00:00 10 9 Sur 14 Sudeste 0 -- -- 79
2020-03-21 10:00:00 8.3 6 Sudoeste 13 Sur 0 -- -- 88
2020-03-21 09:00:00 7.7 10 Sur 13 Sur 0 -- -- 91
2020-03-21 08:00:00 7.1 0 Calma 6 Este 0 -- -- 92
2020-03-21 07:00:00 7 4 Sudoeste 26 Sudoeste 0.4 -- -- 91
2020-03-21 06:00:00 7.3 17 Sudoeste 40 Sudoeste 2.4 -- -- 92
2020-03-21 05:00:00 8.2 23 Sudoeste 53 Sudoeste 4 -- -- 90
2020-03-21 04:00:00 12 12 Sudoeste 19 Sur 0.4 -- -- 79
2020-03-21 03:00:00 12.9 9 Sur 31 Sur 0 -- -- 69
2020-03-21 02:00:00 13 12 Sur 29 Sur 0 -- -- 68
2020-03-21 01:00:00 13 13 Sur 31 Sur 0 -- -- 70
2020-03-21 00:00:00 12.9 16 Sudoeste 27 Sudoeste 0 -- -- 71
2020-03-20 23:00:00 12.8 16 Sudoeste 26 Sur 0 -- -- 73
2020-03-20 22:00:00 13.1 25 Sur 33 Sur 0 -- -- 72
2020-03-20 21:00:00 13.7 8 Sur 11 Sudeste 0 -- -- 68
2020-03-20 20:00:00 14.8 9 Sudoeste 22 Sudoeste 0 -- -- 63
2020-03-20 19:00:00 16.7 14 Sudoeste 20 Sudoeste 0 -- -- 57
2020-03-20 18:00:00 17.8 4 Sudeste 10 Sudoeste 0 -- -- 52
2020-03-20 17:00:00 17.7 5 Sudoeste 16 Oeste 0 -- -- 52
2020-03-20 16:00:00 17.7 4 Sur 25 Sur 0 -- -- 53
2020-03-20 15:00:00 17.3 14 Sudeste 23 Sudeste 0 -- -- 55
2020-03-20 14:00:00 17.9 10 Sudeste 22 Sudeste 0 -- -- 52
2020-03-20 13:00:00 16.4 14 Sudeste 22 Sudeste 0 -- -- 56
2020-03-20 12:00:00 16.4 3 Noroeste 18 Sudoeste 0 -- -- 53
2020-03-20 11:00:00 14.2 5 Sudoeste 12 Oeste 0 -- -- 58
2020-03-20 10:00:00 11 7 Sudoeste 14 Sudoeste 0 -- -- 71
2020-03-20 09:00:00 7.3 7 Sudoeste 9 Sudoeste 0 -- -- 88
2020-03-20 08:00:00 6.6 5 Sudoeste 9 Oeste 0 -- -- 91
2020-03-20 07:00:00 6.9 9 Sudoeste 10 Sudoeste 0 -- -- 90
2020-03-20 06:00:00 8.7 3 Nordeste 11 Nordeste 0 -- -- 84
2020-03-20 05:00:00 8.5 10 Nordeste 14 Nordeste 0 -- -- 83
2020-03-20 04:00:00 9.5 3 Nordeste 9 Sur 0 -- -- 78
2020-03-20 03:00:00 10.4 7 Sur 18 Sudeste 0 -- -- 77
2020-03-20 02:00:00 10.5 8 Sudoeste 13 Oeste 0 -- -- 77
2020-03-20 01:00:00 12.9 5 Sur 26 Sudeste 0 -- -- 66
2020-03-20 00:00:00 11.9 6 Sudoeste 18 Sur 0 -- -- 75
2020-03-19 23:00:00 13.6 13 Sudeste 25 Sudeste 0 -- -- 64
2020-03-19 22:00:00 12.6 5 Sudoeste 10 Sudoeste 0 -- -- 74
2020-03-19 21:00:00 13.3 4 Sudoeste 12 Sudoeste 0 -- -- 76
2020-03-19 20:00:00 14.4 8 Sur 12 Sudoeste 0 -- -- 72
2020-03-19 19:00:00 15.7 12 Sudoeste 23 Sudoeste 0 -- -- 67
2020-03-19 18:00:00 18.9 7 Norte 21 Norte 0 -- -- 53
2020-03-19 17:00:00 19.5 13 Norte 21 Nordeste 0 -- -- 49
2020-03-19 16:00:00 19.5 9 Norte 18 Norte 0 -- -- 49
2020-03-19 15:00:00 19.3 12 Norte 24 Nordeste 0 -- -- 49
2020-03-19 14:00:00 19 9 Nordeste 16 Oeste 0 -- -- 49
2020-03-19 13:00:00 18.8 6 Noroeste 13 Norte 0 -- -- 50
2020-03-19 12:00:00 16.9 4 Norte 12 Norte 0 -- -- 57
2020-03-19 11:00:00 13 3 Sudoeste 8 Sudoeste 0 -- -- 69
2020-03-19 10:00:00 10.4 4 Sudoeste 6 Oeste 0 -- -- 81
2020-03-19 09:00:00 8 0 Calma 8 Sudoeste 0 -- -- 82
2020-03-19 08:00:00 7.2 4 Sudoeste 9 Norte 0 -- -- 84
2020-03-19 07:00:00 8.3 6 Norte 9 Norte 0 -- -- 80
2020-03-19 06:00:00 8.8 3 Norte 10 Sudoeste 0 -- -- 77
2020-03-19 05:00:00 9 4 Sudoeste 15 Sudoeste 0 -- -- 74
2020-03-19 04:00:00 10.1 8 Sudoeste 11 Sudoeste 0 -- -- 68
2020-03-19 03:00:00 12.6 3 Nordeste 12 Este 0 -- -- 58
2020-03-19 02:00:00 13.1 6 Este 23 Sur 0 -- -- 56
2020-03-19 01:00:00 14.3 17 Sudeste 31 Este 0 -- -- 52
2020-03-19 00:00:00 14.6 9 Este 31 Sudeste 0 -- -- 52
2020-03-18 23:00:00 14.6 5 Oeste 9 Norte 0 -- -- 52
2020-03-18 22:00:00 15.1 5 Noroeste 13 Nordeste 0 -- -- 50
2020-03-18 21:00:00 16.3 3 Noroeste 23 Oeste 0 -- -- 46
2020-03-18 20:00:00 17.9 9 Oeste 24 Nordeste 0 -- -- 43
2020-03-18 19:00:00 19.1 10 Este 34 Este 0 -- -- 41
2020-03-18 18:00:00 20.6 14 Este 30 Este 0 -- -- 40
2020-03-18 17:00:00 21.8 12 Este 24 Nordeste 0 -- -- 39
2020-03-18 16:00:00 23 9 Sudeste 21 Nordeste 0 -- -- 41
2020-03-18 15:00:00 22.2 6 Este 17 Este 0 -- -- 38
2020-03-18 14:00:00 21 13 Nordeste 31 Nordeste 0 -- -- 43
2020-03-18 13:00:00 19.9 15 Nordeste 26 Norte 0 -- -- 46
2020-03-18 12:00:00 19.1 6 Nordeste 23 Nordeste 0 -- -- 48
2020-03-18 11:00:00 17.3 13 Nordeste 39 Nordeste 0 -- -- 51
2020-03-18 10:00:00 15.9 17 Nordeste 39 Este 0 -- -- 54
2020-03-18 09:00:00 14.2 13 Nordeste 25 Este 0 -- -- 60
2020-03-18 08:00:00 13.3 9 Norte 26 Nordeste 0 -- -- 62
2020-03-18 07:00:00 13.2 15 Norte 24 Nordeste 0 -- -- 63
2020-03-18 06:00:00 13.2 14 Este 35 Nordeste 0 -- -- 64
2020-03-18 05:00:00 13 13 Nordeste 44 Nordeste 0 -- -- 65
2020-03-18 04:00:00 13.7 14 Nordeste 42 Este 0 -- -- 63
2020-03-18 03:00:00 14.6 21 Este 46 Este 0 -- -- 60
2020-03-18 02:00:00 15.2 16 Nordeste 59 Nordeste 0 -- -- 60
2020-03-18 01:00:00 15.3 14 Este 55 Nordeste 0 -- -- 61
2020-03-18 00:00:00 15.2 26 Nordeste 51 Nordeste 0 -- -- 62
2020-03-17 23:00:00 14.1 12 Nordeste 29 Este 0 -- -- 65
2020-03-17 22:00:00 14.1 14 Nordeste 39 Nordeste 0 -- -- 62
2020-03-17 21:00:00 13.3 6 Norte 26 Este 0 -- -- 59
2020-03-17 20:00:00 14 5 Nordeste 13 Norte 0 -- -- 53
2020-03-17 19:00:00 14.8 12 Nordeste 20 Este 0 -- -- 48
2020-03-17 18:00:00 15.5 8 Nordeste 22 Nordeste 0 -- -- 47
2020-03-17 17:00:00 15.9 7 Este 24 Sur 0 -- -- 40
2020-03-17 16:00:00 15.6 8 Sur 26 Este 0 -- -- 41
2020-03-17 15:00:00 14.1 19 Este 42 Este 0 -- -- 46
2020-03-17 14:00:00 16.5 17 Este 27 Sudeste 0 -- -- 34
2020-03-17 13:00:00 15.5 9 Sudeste 32 Nordeste 0 -- -- 36
2020-03-17 12:00:00 13.3 16 Nordeste 30 Nordeste 0 -- -- 46
2020-03-17 11:00:00 12.2 13 Nordeste 25 Nordeste 0 -- -- 50
2020-03-17 10:00:00 9.1 3 Norte 15 Noroeste 0 -- -- 60
2020-03-17 09:00:00 5.8 10 Norte 13 Norte 0 -- -- 83
2020-03-17 08:00:00 4 0 Calma 11 Sudoeste 0 -- -- 94
2020-03-17 07:00:00 4.4 3 Sudoeste 5 Sudoeste 0 -- -- 93
2020-03-17 06:00:00 4.5 4 Sudoeste 9 Sudoeste 0 -- -- 93
2020-03-17 05:00:00 4.9 3 Este 6 Noroeste 0 -- -- 92
2020-03-17 04:00:00 5.1 5 Sur 10 Oeste 0 -- -- 90
2020-03-17 03:00:00 5.5 3 Sur 8 Sur 0 -- -- 85
2020-03-17 02:00:00 5.9 4 Sur 9 Sudoeste 0 -- -- 86
2020-03-17 01:00:00 6.4 6 Sur 13 Sudoeste 0 -- -- 82
2020-03-17 00:00:00 6.7 6 Sur 18 Sudoeste 0 -- -- 74
2020-03-16 23:00:00 6.4 10 Sudoeste 16 Sur 0 -- -- 75
2020-03-16 22:00:00 6.4 6 Sur 15 Sudoeste 0 -- -- 75
2020-03-16 21:00:00 6.9 0 Calma 14 Sur 0 -- -- 74
2020-03-16 20:00:00 7.6 3 Este 21 Sudoeste 0 -- -- 70
2020-03-16 19:00:00 8.1 9 Sudoeste 21 Sudoeste 0 -- -- 61
2020-03-16 18:00:00 8.5 13 Oeste 28 Oeste 0 -- -- 58
2020-03-16 17:00:00 8.9 13 Oeste 30 Sudoeste 0 -- -- 55
2020-03-16 16:00:00 9.3 21 Sudoeste 35 Sudoeste 0 -- -- 55
2020-03-16 15:00:00 9.6 12 Oeste 26 Noroeste 0 -- -- 52
2020-03-16 14:00:00 9.8 16 Oeste 38 Sudoeste 0 -- -- 51
2020-03-16 13:00:00 9.4 18 Sudoeste 32 Sudoeste 0 -- -- 52
2020-03-16 12:00:00 9.4 22 Sudoeste 31 Sudoeste 0.2 -- -- 53
2020-03-16 11:00:00 9.3 13 Sur 22 Sudoeste 0 -- -- 53
2020-03-16 10:00:00 7.7 10 Sudoeste 18 Sur 0 -- -- 70
2020-03-16 09:00:00 5.7 4 Nordeste 9 Norte 0 -- -- 86
2020-03-16 08:00:00 5.2 6 Norte 13 Nordeste 0.2 -- -- 89
2020-03-16 07:00:00 5.5 11 Nordeste 22 Nordeste 0.4 -- -- 92
2020-03-16 06:00:00 7.8 8 Noroeste 28 Noroeste 0 -- -- 76
2020-03-16 05:00:00 9.4 19 Sudoeste 32 Sudoeste 0.2 -- -- 85
2020-03-16 04:00:00 12.2 23 Sudoeste 31 Sudoeste 0 -- -- 85
2020-03-16 03:00:00 12 17 Sudoeste 35 Sudoeste 0 -- -- 90
2020-03-16 02:00:00 12.6 24 Sudoeste 34 Oeste 0 -- -- 87
2020-03-16 01:00:00 13.5 22 Sudoeste 30 Sudoeste 0 -- -- 82
2020-03-16 00:00:00 12.9 6 Sudoeste 24 Sur 0 -- -- 74
2020-03-15 23:00:00 11.4 14 Sudoeste 19 Sudoeste 0 -- -- 69
2020-03-15 22:00:00 12.8 8 Sudoeste 17 Sudoeste 0 -- -- 63
2020-03-15 21:00:00 14.6 13 Sur 26 Sur 0 -- -- 56
2020-03-15 20:00:00 15.5 6 Sudoeste 23 Sur 0 -- -- 52
2020-03-15 19:00:00 17 19 Sur 30 Sur 0 -- -- 49
2020-03-15 18:00:00 19.2 12 Sudoeste 21 Sudoeste 0 -- -- 49
2020-03-15 17:00:00 19.3 9 Oeste 19 Sudoeste 0 -- -- 47
2020-03-15 16:00:00 17.4 11 Sudoeste 21 Sudoeste 0 -- -- 57
2020-03-15 15:00:00 17.7 16 Sudoeste 28 Sudoeste 0 -- -- 58
2020-03-15 14:00:00 18.1 18 Sudoeste 23 Sudoeste 0 -- -- 54
2020-03-15 13:00:00 18 10 Nordeste 13 Nordeste 0 -- -- 62
2020-03-15 12:00:00 17.1 6 Nordeste 13 Norte 0 -- -- 66
2020-03-15 11:00:00 15.1 6 Nordeste 10 Nordeste 0 -- -- 76
2020-03-15 10:00:00 12.1 0 Calma 11 Sudoeste 0 -- -- 89
2020-03-15 09:00:00 9.9 10 Sudoeste 12 Sudoeste 0 -- -- 95
2020-03-15 08:00:00 9.2 6 Sudoeste 9 Sudoeste 0 -- -- 95
2020-03-15 07:00:00 9.2 5 Sudoeste 10 Sudoeste 0 -- -- 95
2020-03-15 06:00:00 8.6 8 Sudoeste 10 Sur 0 -- -- 95
2020-03-15 05:00:00 9.4 4 Sudoeste 7 Sudoeste 0 -- -- 94
2020-03-15 04:00:00 10 3 Sur 10 Sudoeste 0 -- -- 91
2020-03-15 03:00:00 10.1 8 Sudoeste 12 Sudoeste 0 -- -- 91
2020-03-15 02:00:00 10.5 11 Sudoeste 13 Sudoeste 0 -- -- 91
2020-03-15 01:00:00 11 12 Sudoeste 13 Sudoeste 0 -- -- 88
2020-03-15 00:00:00 11.4 10 Sudoeste 12 Sudoeste 0 -- -- 87
2020-03-14 23:00:00 12.8 7 Sudoeste 8 Sudoeste 0 -- -- 83
2020-03-14 22:00:00 14.9 0 Calma 6 Norte 0 -- -- 75
2020-03-14 21:00:00 16.5 0 Calma 7 Sudoeste 0 -- -- 68
2020-03-14 20:00:00 17.9 2 Sudeste 6 Sur 0 -- -- 61
2020-03-14 19:00:00 20.1 2 Norte 12 Norte 0 -- -- 54
2020-03-14 18:00:00 20.9 4 Norte 13 Noroeste 0 -- -- 52
2020-03-14 17:00:00 21.8 8 Noroeste 20 Noroeste 0 -- -- 50
2020-03-14 16:00:00 20.5 10 Norte 24 Norte 0 -- -- 55
2020-03-14 15:00:00 21 12 Norte 26 Nordeste 0 -- -- 55
2020-03-14 14:00:00 20.9 14 Nordeste 27 Norte 0 -- -- 58
2020-03-14 13:00:00 19.9 19 Nordeste 29 Nordeste 0 -- -- 60
2020-03-14 12:00:00 19.3 17 Nordeste 26 Nordeste 0 -- -- 62
2020-03-14 11:00:00 17.7 10 Norte 18 Nordeste 0 -- -- 67
2020-03-14 10:00:00 14.2 3 Sur 7 Sudoeste 0 -- -- 80
2020-03-14 09:00:00 9.9 3 Sudoeste 15 Sudoeste 0 -- -- 93
2020-03-14 08:00:00 7.9 9 Sudoeste 12 Sudoeste 0 -- -- 96
2020-03-14 07:00:00 8.2 8 Nordeste 10 Sudoeste 0 -- -- 94
2020-03-14 06:00:00 8.3 5 Sudoeste 9 Sudoeste 0 -- -- 93
2020-03-14 05:00:00 9.2 5 Noroeste 6 Sur 0 -- -- 91
2020-03-14 04:00:00 9.7 4 Sudoeste 9 Sudoeste 0 -- -- 88
2020-03-14 03:00:00 9.8 9 Sudoeste 12 Sudoeste 0 -- -- 88
2020-03-14 02:00:00 10.9 9 Sudoeste 11 Sudoeste 0 -- -- 85
2020-03-14 01:00:00 12.2 6 Sudoeste 9 Sudoeste 0 -- -- 78
2020-03-14 00:00:00 12.6 6 Sudoeste 8 Sudoeste 0 -- -- 78
2020-03-13 23:00:00 14.3 3 Sur 9 Sudoeste 0 -- -- 71
2020-03-13 22:00:00 15.1 6 Sudoeste 18 Sur 0 -- -- 68
2020-03-13 21:00:00 15.9 13 Sur 17 Sudoeste 0 -- -- 63
2020-03-13 20:00:00 17.1 15 Sudoeste 23 Sudoeste 0 -- -- 56
2020-03-13 19:00:00 19.3 16 Sudoeste 24 Sudoeste 0 -- -- 44
2020-03-13 18:00:00 21.5 15 Sudoeste 27 Sudoeste 0 -- -- 32
2020-03-13 17:00:00 21.8 15 Oeste 26 Oeste 0 -- -- 37
2020-03-13 16:00:00 22.4 16 Sudoeste 26 Sudoeste 0 -- -- 42
2020-03-13 15:00:00 22.1 17 Nordeste 24 Nordeste 0 -- -- 52
2020-03-13 14:00:00 21.7 16 Nordeste 25 Nordeste 0 -- -- 51
2020-03-13 13:00:00 20.9 16 Nordeste 24 Nordeste 0 -- -- 55
2020-03-13 12:00:00 19.1 13 Nordeste 18 Nordeste 0 -- -- 56
2020-03-13 11:00:00 16.7 8 Norte 12 Norte 0 -- -- 63
2020-03-13 10:00:00 12.1 0 Calma 6 Sudoeste 0 -- -- 80
2020-03-13 09:00:00 10.1 2 Nordeste 13 Sudoeste 0 -- -- 84
2020-03-13 08:00:00 8.7 10 Sudoeste 13 Sudoeste 0 -- -- 85
2020-03-13 07:00:00 8.7 9 Sudoeste 11 Sudoeste 0 -- -- 88
2020-03-13 06:00:00 9 10 Sudoeste 12 Sudoeste 0 -- -- 89
2020-03-13 05:00:00 10.4 7 Sudoeste 10 Oeste 0 -- -- 87
2020-03-13 04:00:00 10.4 8 Sudoeste 14 Sudoeste 0 -- -- 84
2020-03-13 03:00:00 11.7 9 Sudoeste 13 Oeste 0 -- -- 82
2020-03-13 02:00:00 13 6 Sudoeste 10 Sudoeste 0 -- -- 77
2020-03-13 01:00:00 14 9 Sudoeste 10 Sudoeste 0 -- -- 76
2020-03-13 00:00:00 15.9 4 Sudoeste 12 Sudoeste 0 -- -- 70
2020-03-12 23:00:00 16.6 9 Sudoeste 17 Sudoeste 0 -- -- 69
2020-03-12 22:00:00 18.1 2 Sur 10 Sudoeste 0 -- -- 60
2020-03-12 21:00:00 18.9 4 Oeste 23 Sudoeste 0 -- -- 57
2020-03-12 20:00:00 20.7 15 Sudoeste 22 Sudoeste 0 -- -- 50
2020-03-12 19:00:00 23.6 13 Sudoeste 24 Sudoeste 0 -- -- 42
2020-03-12 18:00:00 25.9 18 Sudoeste 27 Sudoeste 0 -- -- 33
2020-03-12 17:00:00 26.8 18 Sudoeste 26 Sudoeste 0 -- -- 32
2020-03-12 16:00:00 27.1 13 Oeste 27 Sudoeste 0 -- -- 29
2020-03-12 15:00:00 27.2 6 Norte 19 Nordeste 0 -- -- 32
2020-03-12 14:00:00 25.7 10 Nordeste 18 Norte 0 -- -- 32
2020-03-12 13:00:00 24.2 14 Nordeste 20 Nordeste 0 -- -- 34
2020-03-12 12:00:00 23 14 Nordeste 19 Nordeste 0 -- -- 38
2020-03-12 11:00:00 21.1 12 Nordeste 14 Nordeste 0 -- -- 41
2020-03-12 10:00:00 17 8 Sudoeste 11 Sudoeste 0 -- -- 53
2020-03-12 09:00:00 12.5 5 Sudoeste 11 Sudoeste 0 -- -- 60
2020-03-12 08:00:00 11.2 10 Sudoeste 13 Sudoeste 0 -- -- 63
2020-03-12 07:00:00 11.8 7 Sudoeste 12 Sudoeste 0 -- -- 61
2020-03-12 06:00:00 10.9 9 Sudoeste 11 Sudoeste 0 -- -- 69
2020-03-12 05:00:00 11.8 3 Sudoeste 10 Sudoeste 0 -- -- 65
2020-03-12 04:00:00 12.2 6 Sudoeste 14 Sudoeste 0 -- -- 66
2020-03-12 03:00:00 11.3 8 Sudoeste 12 Sudoeste 0 -- -- 76
2020-03-12 02:00:00 11.9 8 Sudoeste 13 Sudoeste 0 -- -- 76
2020-03-12 01:00:00 12.4 10 Sudoeste 11 Sudoeste 0 -- -- 75
2020-03-12 00:00:00 13.5 6 Sudoeste 11 Sudoeste 0 -- -- 71
2020-03-11 23:00:00 14.4 7 Sudoeste 11 Sudoeste 0 -- -- 68
2020-03-11 22:00:00 15.7 10 Sudoeste 12 Sudoeste 0 -- -- 65
2020-03-11 21:00:00 18 8 Sudoeste 12 Sudoeste 0 -- -- 58
2020-03-11 20:00:00 21.2 7 Sudoeste 12 Nordeste 0 -- -- 48
2020-03-11 19:00:00 23.4 7 Nordeste 15 Nordeste 0 -- -- 41
2020-03-11 18:00:00 24.9 13 Nordeste 20 Norte 0 -- -- 38
2020-03-11 17:00:00 26.2 11 Norte 23 Norte 0 -- -- 36
2020-03-11 16:00:00 28.3 15 Norte 27 Norte 0 -- -- 33
2020-03-11 15:00:00 28.6 6 Sudoeste 23 Sudoeste 0 -- -- 27
2020-03-11 14:00:00 27.7 16 Sudoeste 27 Sudoeste 0 -- -- 29
2020-03-11 13:00:00 27.5 14 Sur 22 Sur 0 -- -- 28
2020-03-11 12:00:00 25.9 4 Sur 10 Sudoeste 0 -- -- 33
2020-03-11 11:00:00 22.1 0 Calma 6 Sudoeste 0 -- -- 44
2020-03-11 10:00:00 15.5 5 Sudoeste 14 Sudoeste 0 -- -- 59
2020-03-11 09:00:00 10.7 14 Sudoeste 16 Sudoeste 0 -- -- 72
2020-03-11 08:00:00 8.6 6 Sudoeste 12 Sudoeste 0 -- -- 80
2020-03-11 07:00:00 7.7 10 Sudoeste 15 Sudoeste 0 -- -- 84
2020-03-11 06:00:00 8 12 Sudoeste 14 Sudoeste 0 -- -- 83
2020-03-11 05:00:00 8.9 8 Sudoeste 9 Sudoeste 0 -- -- 79
2020-03-11 04:00:00 9.2 7 Sudoeste 14 Sudoeste 0 -- -- 77
2020-03-11 03:00:00 9.2 9 Sudoeste 12 Sudoeste 0 -- -- 78
2020-03-11 02:00:00 10 9 Sudoeste 12 Sudoeste 0 -- -- 75
2020-03-11 01:00:00 11.4 4 Sudoeste 12 Sudoeste 0 -- -- 69
2020-03-11 00:00:00 11.4 13 Sudoeste 16 Sudoeste 0 -- -- 70
2020-03-10 23:00:00 13 6 Sudoeste 18 Sudoeste 0 -- -- 62
2020-03-10 22:00:00 14.6 6 Sudoeste 10 Sudoeste 0 -- -- 59
2020-03-10 21:00:00 16.2 5 Sudoeste 13 Sudoeste 0 -- -- 54
2020-03-10 20:00:00 19.4 7 Sudoeste 8 Sudoeste 0 -- -- 44
2020-03-10 19:00:00 21.8 0 Calma 17 Norte 0 -- -- 38
2020-03-10 18:00:00 22.8 11 Norte 24 Norte 0 -- -- 36
2020-03-10 17:00:00 23.8 12 Norte 24 Norte 0 -- -- 35
2020-03-10 16:00:00 23.5 10 Norte 28 Norte 0 -- -- 35
2020-03-10 15:00:00 23 12 Norte 27 Norte 0 -- -- 37
2020-03-10 14:00:00 23.2 14 Norte 22 Norte 0 -- -- 37
2020-03-10 13:00:00 22.3 14 Nordeste 21 Nordeste 0 -- -- 37
2020-03-10 12:00:00 21.1 10 Nordeste 16 Nordeste 0 -- -- 39
2020-03-10 11:00:00 17.7 4 Sur 10 Sudoeste 0 -- -- 42
2020-03-10 10:00:00 12.5 7 Sudoeste 10 Sudoeste 0 -- -- 59
2020-03-10 09:00:00 7.8 5 Sudoeste 12 Sudoeste 0 -- -- 75
2020-03-10 08:00:00 5.8 7 Sudoeste 15 Sudoeste 0 -- -- 82
2020-03-10 07:00:00 5.2 9 Sudoeste 14 Oeste 0 -- -- 85
2020-03-10 06:00:00 6.5 0 Calma 6 Norte 0 -- -- 79
2020-03-10 05:00:00 6.8 5 Sudoeste 13 Oeste 0 -- -- 79
2020-03-10 04:00:00 7.5 2 Sudoeste 11 Sudoeste 0 -- -- 76
2020-03-10 03:00:00 8.8 2 Sudeste 9 Oeste 0 -- -- 70
2020-03-10 02:00:00 9.1 0 Calma 8 Nordeste 0 -- -- 67
2020-03-10 01:00:00 10.7 9 Nordeste 18 Nordeste 0 -- -- 61
2020-03-10 00:00:00 9.9 8 Nordeste 13 Nordeste 0 -- -- 64
2020-03-09 23:00:00 10.4 0 Calma 10 Noroeste 0 -- -- 59
2020-03-09 22:00:00 11.5 3 Sudoeste 10 Sudoeste 0 -- -- 55
2020-03-09 21:00:00 13.5 5 Sudoeste 8 Sudoeste 0 -- -- 47
2020-03-09 20:00:00 15 2 Sudeste 11 Norte 0 -- -- 42
2020-03-09 19:00:00 16.9 8 Norte 24 Norte 0 -- -- 38
2020-03-09 18:00:00 18.8 12 Norte 19 Norte 0 -- -- 36
2020-03-09 17:00:00 19 15 Norte 32 Norte 0 -- -- 36
2020-03-09 16:00:00 19.3 19 Norte 31 Norte 0 -- -- 44
2020-03-09 15:00:00 19 17 Nordeste 26 Norte 0 -- -- 48
2020-03-09 14:00:00 19.2 14 Nordeste 23 Nordeste 0 -- -- 46
2020-03-09 13:00:00 18.8 5 Norte 15 Nordeste 0 -- -- 42
2020-03-09 12:00:00 16.8 4 Noroeste 10 Este 0 -- -- 51
2020-03-09 11:00:00 15.1 3 Nordeste 10 Sudoeste 0 -- -- 57
2020-03-09 10:00:00 10.7 3 Sudoeste 6 Sur 0 -- -- 69
2020-03-09 09:00:00 7 0 Calma 6 Sudoeste 0 -- -- 75
2020-03-09 08:00:00 4.8 3 Sudoeste 6 Sudoeste 0 -- -- 82
2020-03-09 07:00:00 5.1 6 Sudoeste 8 Sudoeste 0 -- -- 80
2020-03-09 06:00:00 6.3 0 Calma 9 Sudoeste 0 -- -- 74
2020-03-09 05:00:00 5.8 8 Sudoeste 10 Sudoeste 0 -- -- 76
2020-03-09 04:00:00 7 6 Sudoeste 13 Noroeste 0 -- -- 71
2020-03-09 03:00:00 7.5 2 Sudoeste 10 Sudoeste 0 -- -- 69
2020-03-09 02:00:00 9 8 Sudoeste 14 Nordeste 0 -- -- 61
2020-03-09 01:00:00 10.7 7 Nordeste 14 Nordeste 0 -- -- 53
2020-03-09 00:00:00 11.3 5 Sudoeste 15 Norte 0 -- -- 52